sensor_id;sensor_type;location;lat;lon;timestamp;temperature;humidity
18581;DHT22;9420;50.876;7.012;2023-08-06T00:00:07;15.33;91.94
18581;DHT22;9420;50.876;7.012;2023-08-06T00:02:35;15.19;93.35
18581;DHT22;9420;50.876;7.012;2023-08-06T00:05:02;15.23;92.45
18581;DHT22;9420;50.876;7.012;2023-08-06T00:07:29;15.09;93.85
18581;DHT22;9420;50.876;7.012;2023-08-06T00:09:56;15.08;93.11
18581;DHT22;9420;50.876;7.012;2023-08-06T00:12:24;15.02;93.55
18581;DHT22;9420;50.876;7.012;2023-08-06T00:14:52;14.89;94.26
18581;DHT22;9420;50.876;7.012;2023-08-06T00:17:19;14.96;93.64
18581;DHT22;9420;50.876;7.012;2023-08-06T00:19:46;14.82;94.04
18581;DHT22;9420;50.876;7.012;2023-08-06T00:22:12;14.80;94.26
18581;DHT22;9420;50.876;7.012;2023-08-06T00:24:39;14.71;94.58
18581;DHT22;9420;50.876;7.012;2023-08-06T00:27:06;14.77;94.33
18581;DHT22;9420;50.876;7.012;2023-08-06T00:29:35;14.68;94.23
18581;DHT22;9420;50.876;7.012;2023-08-06T00:32:02;14.60;94.31
18581;DHT22;9420;50.876;7.012;2023-08-06T00:34:28;14.59;94.83
18581;DHT22;9420;50.876;7.012;2023-08-06T00:36:55;14.54;94.68
18581;DHT22;9420;50.876;7.012;2023-08-06T00:39:22;14.60;94.43
18581;DHT22;9420;50.876;7.012;2023-08-06T00:41:48;14.59;94.54
18581;DHT22;9420;50.876;7.012;2023-08-06T00:44:15;14.60;93.69
18581;DHT22;9420;50.876;7.012;2023-08-06T00:46:43;14.47;94.77
18581;DHT22;9420;50.876;7.012;2023-08-06T00:49:10;14.61;94.66
18581;DHT22;9420;50.876;7.012;2023-08-06T00:51:37;14.74;94.16
18581;DHT22;9420;50.876;7.012;2023-08-06T00:54:04;14.95;93.41
18581;DHT22;9420;50.876;7.012;2023-08-06T00:56:31;14.96;93.77
18581;DHT22;9420;50.876;7.012;2023-08-06T00:58:59;15.02;93.37
18581;DHT22;9420;50.876;7.012;2023-08-06T01:01:25;15.02;93.95
18581;DHT22;9420;50.876;7.012;2023-08-06T01:03:54;15.08;94.03
18581;DHT22;9420;50.876;7.012;2023-08-06T01:06:33;15.05;94.24
18581;DHT22;9420;50.876;7.012;2023-08-06T01:09:08;15.22;93.13
18581;DHT22;9420;50.876;7.012;2023-08-06T01:11:44;15.23;93.58
18581;DHT22;9420;50.876;7.012;2023-08-06T01:14:18;15.25;93.65
18581;DHT22;9420;50.876;7.012;2023-08-06T01:16:50;15.22;94.18
18581;DHT22;9420;50.876;7.012;2023-08-06T01:19:19;15.22;93.90
18581;DHT22;9420;50.876;7.012;2023-08-06T01:21:47;15.38;93.44
18581;DHT22;9420;50.876;7.012;2023-08-06T01:24:13;15.36;93.17
18581;DHT22;9420;50.876;7.012;2023-08-06T01:26:45;15.44;92.91
18581;DHT22;9420;50.876;7.012;2023-08-06T01:29:19;15.40;93.42
18581;DHT22;9420;50.876;7.012;2023-08-06T01:31:51;15.33;93.15
18581;DHT22;9420;50.876;7.012;2023-08-06T01:34:21;15.26;93.65
18581;DHT22;9420;50.876;7.012;2023-08-06T01:36:50;15.09;93.97
18581;DHT22;9420;50.876;7.012;2023-08-06T01:39:16;14.92;94.30
18581;DHT22;9420;50.876;7.012;2023-08-06T01:41:46;14.84;94.35
18581;DHT22;9420;50.876;7.012;2023-08-06T01:44:12;14.88;94.37
18581;DHT22;9420;50.876;7.012;2023-08-06T01:46:39;15.02;93.30
18581;DHT22;9420;50.876;7.012;2023-08-06T01:49:05;15.09;93.55
18581;DHT22;9420;50.876;7.012;2023-08-06T01:51:32;15.01;94.25
18581;DHT22;9420;50.876;7.012;2023-08-06T01:54:00;14.98;93.56
18581;DHT22;9420;50.876;7.012;2023-08-06T01:56:29;14.84;94.59
18581;DHT22;9420;50.876;7.012;2023-08-06T01:58:56;14.77;94.72
18581;DHT22;9420;50.876;7.012;2023-08-06T02:01:22;14.75;94.26
18581;DHT22;9420;50.876;7.012;2023-08-06T02:03:49;14.64;94.76
18581;DHT22;9420;50.876;7.012;2023-08-06T02:06:16;14.64;94.45
18581;DHT22;9420;50.876;7.012;2023-08-06T02:08:42;14.75;93.85
18581;DHT22;9420;50.876;7.012;2023-08-06T02:11:10;14.78;94.63
18581;DHT22;9420;50.876;7.012;2023-08-06T02:13:37;14.78;94.39
18581;DHT22;9420;50.876;7.012;2023-08-06T02:16:06;14.89;94.32
18581;DHT22;9420;50.876;7.012;2023-08-06T02:18:33;14.89;94.88
18581;DHT22;9420;50.876;7.012;2023-08-06T02:21:00;14.88;94.92
18581;DHT22;9420;50.876;7.012;2023-08-06T02:23:27;14.95;94.60
18581;DHT22;9420;50.876;7.012;2023-08-06T02:25:58;14.87;94.68
18581;DHT22;9420;50.876;7.012;2023-08-06T02:28:26;14.99;94.14
18581;DHT22;9420;50.876;7.012;2023-08-06T02:30:53;14.98;94.49
18581;DHT22;9420;50.876;7.012;2023-08-06T02:33:19;14.96;94.90
18581;DHT22;9420;50.876;7.012;2023-08-06T02:35:46;15.13;94.03
18581;DHT22;9420;50.876;7.012;2023-08-06T02:38:13;15.11;94.76
18581;DHT22;9420;50.876;7.012;2023-08-06T02:40:43;15.11;94.35
18581;DHT22;9420;50.876;7.012;2023-08-06T02:43:09;15.12;94.14
18581;DHT22;9420;50.876;7.012;2023-08-06T02:45:37;15.13;94.65
18581;DHT22;9420;50.876;7.012;2023-08-06T02:48:04;15.19;94.02
18581;DHT22;9420;50.876;7.012;2023-08-06T02:50:38;15.13;94.50
18581;DHT22;9420;50.876;7.012;2023-08-06T02:53:05;15.23;93.35
18581;DHT22;9420;50.876;7.012;2023-08-06T02:55:32;15.23;93.40
18581;DHT22;9420;50.876;7.012;2023-08-06T02:58:00;15.23;93.37
18581;DHT22;9420;50.876;7.012;2023-08-06T03:00:27;15.26;93.30
18581;DHT22;9420;50.876;7.012;2023-08-06T03:02:55;15.32;93.16
18581;DHT22;9420;50.876;7.012;2023-08-06T03:05:21;15.28;93.64
18581;DHT22;9420;50.876;7.012;2023-08-06T03:07:48;15.33;93.40
18581;DHT22;9420;50.876;7.012;2023-08-06T03:10:15;15.32;93.66
18581;DHT22;9420;50.876;7.012;2023-08-06T03:12:41;15.33;93.54
18581;DHT22;9420;50.876;7.012;2023-08-06T03:15:09;15.33;93.66
18581;DHT22;9420;50.876;7.012;2023-08-06T03:17:35;15.32;94.25
18581;DHT22;9420;50.876;7.012;2023-08-06T03:20:05;15.29;94.67
18581;DHT22;9420;50.876;7.012;2023-08-06T03:22:32;15.23;95.15
18581;DHT22;9420;50.876;7.012;2023-08-06T03:24:58;15.23;95.34
18581;DHT22;9420;50.876;7.012;2023-08-06T03:27:25;15.28;95.30
18581;DHT22;9420;50.876;7.012;2023-08-06T03:29:52;15.32;94.63
18581;DHT22;9420;50.876;7.012;2023-08-06T03:32:18;15.32;94.55
18581;DHT22;9420;50.876;7.012;2023-08-06T03:34:45;15.33;94.61
18581;DHT22;9420;50.876;7.012;2023-08-06T03:37:13;15.32;94.42
18581;DHT22;9420;50.876;7.012;2023-08-06T03:39:40;15.36;94.69
18581;DHT22;9420;50.876;7.012;2023-08-06T03:42:06;15.30;95.10
18581;DHT22;9420;50.876;7.012;2023-08-06T03:44:33;15.23;94.71
18581;DHT22;9420;50.876;7.012;2023-08-06T03:47:00;15.29;94.13
18581;DHT22;9420;50.876;7.012;2023-08-06T03:49:26;15.23;94.76
18581;DHT22;9420;50.876;7.012;2023-08-06T03:51:53;15.29;94.89
18581;DHT22;9420;50.876;7.012;2023-08-06T03:54:21;15.16;94.27
18581;DHT22;9420;50.876;7.012;2023-08-06T03:56:47;15.19;94.27
18581;DHT22;9420;50.876;7.012;2023-08-06T03:59:14;15.11;94.68
18581;DHT22;9420;50.876;7.012;2023-08-06T04:01:40;15.11;94.93
18581;DHT22;9420;50.876;7.012;2023-08-06T04:04:07;15.18;95.81
18581;DHT22;9420;50.876;7.012;2023-08-06T04:06:34;15.13;96.27
18581;DHT22;9420;50.876;7.012;2023-08-06T04:09:00;15.08;96.39
18581;DHT22;9420;50.876;7.012;2023-08-06T04:11:29;15.13;95.68
18581;DHT22;9420;50.876;7.012;2023-08-06T04:13:56;15.11;96.02
18581;DHT22;9420;50.876;7.012;2023-08-06T04:16:22;15.11;96.46
18581;DHT22;9420;50.876;7.012;2023-08-06T04:18:51;15.18;95.92
18581;DHT22;9420;50.876;7.012;2023-08-06T04:21:18;15.15;95.91
18581;DHT22;9420;50.876;7.012;2023-08-06T04:23:45;15.19;95.89
18581;DHT22;9420;50.876;7.012;2023-08-06T04:26:12;15.18;95.80
18581;DHT22;9420;50.876;7.012;2023-08-06T04:28:40;15.12;96.19
18581;DHT22;9420;50.876;7.012;2023-08-06T04:31:07;15.08;96.63
18581;DHT22;9420;50.876;7.012;2023-08-06T04:33:33;15.13;95.35
18581;DHT22;9420;50.876;7.012;2023-08-06T04:36:00;15.22;95.68
18581;DHT22;9420;50.876;7.012;2023-08-06T04:38:26;15.22;95.56
18581;DHT22;9420;50.876;7.012;2023-08-06T04:40:53;15.25;96.35
18581;DHT22;9420;50.876;7.012;2023-08-06T04:43:20;15.22;95.97
18581;DHT22;9420;50.876;7.012;2023-08-06T04:45:49;15.29;95.82
18581;DHT22;9420;50.876;7.012;2023-08-06T04:48:15;15.30;95.51
18581;DHT22;9420;50.876;7.012;2023-08-06T04:50:46;15.32;96.04
18581;DHT22;9420;50.876;7.012;2023-08-06T04:53:13;15.47;95.75
18581;DHT22;9420;50.876;7.012;2023-08-06T04:55:40;15.46;95.66
18581;DHT22;9420;50.876;7.012;2023-08-06T04:58:06;15.71;94.94
18581;DHT22;9420;50.876;7.012;2023-08-06T05:00:33;15.71;94.57
18581;DHT22;9420;50.876;7.012;2023-08-06T05:03:01;15.64;94.77
18581;DHT22;9420;50.876;7.012;2023-08-06T05:05:28;15.71;94.47
18581;DHT22;9420;50.876;7.012;2023-08-06T05:07:56;15.71;94.57
18581;DHT22;9420;50.876;7.012;2023-08-06T05:10:24;15.73;94.50
18581;DHT22;9420;50.876;7.012;2023-08-06T05:12:51;15.67;94.51
18581;DHT22;9420;50.876;7.012;2023-08-06T05:15:18;15.73;94.24
18581;DHT22;9420;50.876;7.012;2023-08-06T05:17:44;15.67;94.70
18581;DHT22;9420;50.876;7.012;2023-08-06T05:20:13;15.59;94.52
18581;DHT22;9420;50.876;7.012;2023-08-06T05:22:40;15.60;94.68
18581;DHT22;9420;50.876;7.012;2023-08-06T05:25:07;15.77;94.79
18581;DHT22;9420;50.876;7.012;2023-08-06T05:27:34;15.81;93.96
18581;DHT22;9420;50.876;7.012;2023-08-06T05:30:00;15.80;93.96
18581;DHT22;9420;50.876;7.012;2023-08-06T05:32:27;15.86;93.97
18581;DHT22;9420;50.876;7.012;2023-08-06T05:34:53;15.93;94.99
18581;DHT22;9420;50.876;7.012;2023-08-06T05:37:21;15.97;93.76
18581;DHT22;9420;50.876;7.012;2023-08-06T05:39:48;15.93;95.21
18581;DHT22;9420;50.876;7.012;2023-08-06T05:42:15;15.93;94.52
18581;DHT22;9420;50.876;7.012;2023-08-06T05:44:42;16.00;94.21
18581;DHT22;9420;50.876;7.012;2023-08-06T05:47:09;16.08;93.46
18581;DHT22;9420;50.876;7.012;2023-08-06T05:49:37;16.15;93.32
18581;DHT22;9420;50.876;7.012;2023-08-06T05:52:05;16.08;93.73
18581;DHT22;9420;50.876;7.012;2023-08-06T05:54:35;16.04;93.76
18581;DHT22;9420;50.876;7.012;2023-08-06T05:57:01;15.80;94.15
18581;DHT22;9420;50.876;7.012;2023-08-06T05:59:28;15.87;94.71
18581;DHT22;9420;50.876;7.012;2023-08-06T06:01:55;15.81;94.64
18581;DHT22;9420;50.876;7.012;2023-08-06T06:04:22;15.83;94.39
18581;DHT22;9420;50.876;7.012;2023-08-06T06:06:49;15.76;94.08
18581;DHT22;9420;50.876;7.012;2023-08-06T06:09:15;15.94;94.36
18581;DHT22;9420;50.876;7.012;2023-08-06T06:11:43;16.02;94.22
18581;DHT22;9420;50.876;7.012;2023-08-06T06:14:10;15.87;92.93
18581;DHT22;9420;50.876;7.012;2023-08-06T06:16:36;15.69;94.17
18581;DHT22;9420;50.876;7.012;2023-08-06T06:19:03;15.76;94.51
18581;DHT22;9420;50.876;7.012;2023-08-06T06:21:30;15.63;94.82
18581;DHT22;9420;50.876;7.012;2023-08-06T06:23:56;15.54;95.56
18581;DHT22;9420;50.876;7.012;2023-08-06T06:26:23;15.47;95.08
18581;DHT22;9420;50.876;7.012;2023-08-06T06:28:51;15.39;95.81
18581;DHT22;9420;50.876;7.012;2023-08-06T06:31:18;15.25;96.02
18581;DHT22;9420;50.876;7.012;2023-08-06T06:33:44;15.22;94.52
18581;DHT22;9420;50.876;7.012;2023-08-06T06:36:11;15.19;94.18
18581;DHT22;9420;50.876;7.012;2023-08-06T06:38:38;15.08;94.41
18581;DHT22;9420;50.876;7.012;2023-08-06T06:41:04;14.93;94.93
18581;DHT22;9420;50.876;7.012;2023-08-06T06:43:31;14.87;95.46
18581;DHT22;9420;50.876;7.012;2023-08-06T06:45:59;14.87;95.16
18581;DHT22;9420;50.876;7.012;2023-08-06T06:48:27;14.89;94.95
18581;DHT22;9420;50.876;7.012;2023-08-06T06:50:54;14.89;95.94
18581;DHT22;9420;50.876;7.012;2023-08-06T06:53:21;14.99;95.49
18581;DHT22;9420;50.876;7.012;2023-08-06T06:55:52;14.93;95.42
18581;DHT22;9420;50.876;7.012;2023-08-06T06:58:18;14.95;95.48
18581;DHT22;9420;50.876;7.012;2023-08-06T07:00:46;14.92;96.21
18581;DHT22;9420;50.876;7.012;2023-08-06T07:03:14;15.02;96.69
18581;DHT22;9420;50.876;7.012;2023-08-06T07:05:40;14.96;96.21
18581;DHT22;9420;50.876;7.012;2023-08-06T07:08:07;14.95;97.10
18581;DHT22;9420;50.876;7.012;2023-08-06T07:10:33;14.96;95.96
18581;DHT22;9420;50.876;7.012;2023-08-06T07:13:00;14.89;96.44
18581;DHT22;9420;50.876;7.012;2023-08-06T07:15:26;14.87;96.28
18581;DHT22;9420;50.876;7.012;2023-08-06T07:17:53;14.85;96.57
18581;DHT22;9420;50.876;7.012;2023-08-06T07:20:21;14.82;96.47
18581;DHT22;9420;50.876;7.012;2023-08-06T07:22:48;14.77;96.48
18581;DHT22;9420;50.876;7.012;2023-08-06T07:25:15;14.74;96.67
18581;DHT22;9420;50.876;7.012;2023-08-06T07:27:42;14.72;96.35
18581;DHT22;9420;50.876;7.012;2023-08-06T07:30:09;14.74;97.09
18581;DHT22;9420;50.876;7.012;2023-08-06T07:32:36;14.74;96.48
18581;DHT22;9420;50.876;7.012;2023-08-06T07:35:03;14.72;97.12
18581;DHT22;9420;50.876;7.012;2023-08-06T07:37:32;14.80;97.23
18581;DHT22;9420;50.876;7.012;2023-08-06T07:39:58;14.88;96.45
18581;DHT22;9420;50.876;7.012;2023-08-06T07:42:25;14.87;96.44
18581;DHT22;9420;50.876;7.012;2023-08-06T07:44:52;14.95;96.68
18581;DHT22;9420;50.876;7.012;2023-08-06T07:47:19;14.95;96.73
18581;DHT22;9420;50.876;7.012;2023-08-06T07:49:45;14.91;96.73
18581;DHT22;9420;50.876;7.012;2023-08-06T07:52:12;15.02;96.61
18581;DHT22;9420;50.876;7.012;2023-08-06T07:54:40;15.05;96.08
18581;DHT22;9420;50.876;7.012;2023-08-06T07:57:06;15.12;95.97
18581;DHT22;9420;50.876;7.012;2023-08-06T07:59:33;15.13;95.93
18581;DHT22;9420;50.876;7.012;2023-08-06T08:02:00;15.11;95.70
18581;DHT22;9420;50.876;7.012;2023-08-06T08:04:27;15.18;96.11
18581;DHT22;9420;50.876;7.012;2023-08-06T08:06:53;15.25;95.90
18581;DHT22;9420;50.876;7.012;2023-08-06T08:09:20;15.25;96.05
18581;DHT22;9420;50.876;7.012;2023-08-06T08:11:48;15.29;95.17
18581;DHT22;9420;50.876;7.012;2023-08-06T08:14:15;15.30;95.49
18581;DHT22;9420;50.876;7.012;2023-08-06T08:16:42;15.40;95.50
18581;DHT22;9420;50.876;7.012;2023-08-06T08:19:08;15.39;95.48
18581;DHT22;9420;50.876;7.012;2023-08-06T08:21:35;15.49;95.83
18581;DHT22;9420;50.876;7.012;2023-08-06T08:24:03;15.60;95.55
18581;DHT22;9420;50.876;7.012;2023-08-06T08:26:30;15.59;94.58
18581;DHT22;9420;50.876;7.012;2023-08-06T08:28:58;15.63;95.79
18581;DHT22;9420;50.876;7.012;2023-08-06T08:31:25;15.73;95.32
18581;DHT22;9420;50.876;7.012;2023-08-06T08:33:51;15.81;95.01
18581;DHT22;9420;50.876;7.012;2023-08-06T08:36:18;15.80;93.85
18581;DHT22;9420;50.876;7.012;2023-08-06T08:38:45;15.96;94.18
18581;DHT22;9420;50.876;7.012;2023-08-06T08:41:12;15.97;93.77
18581;DHT22;9420;50.876;7.012;2023-08-06T08:43:39;16.14;94.71
18581;DHT22;9420;50.876;7.012;2023-08-06T08:46:09;16.33;92.79
18581;DHT22;9420;50.876;7.012;2023-08-06T08:48:37;16.44;93.62
18581;DHT22;9420;50.876;7.012;2023-08-06T08:51:04;16.70;92.72
18581;DHT22;9420;50.876;7.012;2023-08-06T08:53:33;16.49;91.67
18581;DHT22;9420;50.876;7.012;2023-08-06T08:55:59;16.55;91.32
18581;DHT22;9420;50.876;7.012;2023-08-06T08:58:26;16.53;93.53
18581;DHT22;9420;50.876;7.012;2023-08-06T09:00:53;16.60;94.12
18581;DHT22;9420;50.876;7.012;2023-08-06T09:03:22;16.56;92.43
18581;DHT22;9420;50.876;7.012;2023-08-06T09:05:53;16.80;92.58
18581;DHT22;9420;50.876;7.012;2023-08-06T09:08:24;17.10;91.47
18581;DHT22;9420;50.876;7.012;2023-08-06T09:10:53;17.38;90.91
18581;DHT22;9420;50.876;7.012;2023-08-06T09:13:20;17.69;91.52
18581;DHT22;9420;50.876;7.012;2023-08-06T09:15:48;17.81;89.25
18581;DHT22;9420;50.876;7.012;2023-08-06T09:18:26;17.96;88.05
18581;DHT22;9420;50.876;7.012;2023-08-06T09:20:53;18.07;90.28
18581;DHT22;9420;50.876;7.012;2023-08-06T09:23:21;18.13;91.03
18581;DHT22;9420;50.876;7.012;2023-08-06T09:25:54;18.13;88.41
18581;DHT22;9420;50.876;7.012;2023-08-06T09:28:21;18.30;90.85
18581;DHT22;9420;50.876;7.012;2023-08-06T09:30:49;18.27;88.58
18581;DHT22;9420;50.876;7.012;2023-08-06T09:33:18;18.04;89.95
18581;DHT22;9420;50.876;7.012;2023-08-06T09:35:46;18.06;91.14
18581;DHT22;9420;50.876;7.012;2023-08-06T09:38:13;17.36;90.87
18581;DHT22;9420;50.876;7.012;2023-08-06T09:40:40;17.24;92.41
18581;DHT22;9420;50.876;7.012;2023-08-06T09:43:07;17.31;91.70
18581;DHT22;9420;50.876;7.012;2023-08-06T09:45:34;17.34;91.70
18581;DHT22;9420;50.876;7.012;2023-08-06T09:48:03;17.30;92.24
18581;DHT22;9420;50.876;7.012;2023-08-06T09:50:32;17.38;91.68
18581;DHT22;9420;50.876;7.012;2023-08-06T09:53:03;17.49;90.87
18581;DHT22;9420;50.876;7.012;2023-08-06T09:55:31;17.44;92.23
18581;DHT22;9420;50.876;7.012;2023-08-06T09:57:59;17.31;91.92
18581;DHT22;9420;50.876;7.012;2023-08-06T10:00:28;17.13;91.78
18581;DHT22;9420;50.876;7.012;2023-08-06T10:02:59;16.80;92.76
18581;DHT22;9420;50.876;7.012;2023-08-06T10:05:26;16.44;93.90
18581;DHT22;9420;50.876;7.012;2023-08-06T10:07:53;16.17;94.66
18581;DHT22;9420;50.876;7.012;2023-08-06T10:10:23;16.02;94.37
18581;DHT22;9420;50.876;7.012;2023-08-06T10:12:54;15.93;94.95
18581;DHT22;9420;50.876;7.012;2023-08-06T10:15:25;15.80;94.91
18581;DHT22;9420;50.876;7.012;2023-08-06T10:17:56;15.77;95.94
18581;DHT22;9420;50.876;7.012;2023-08-06T10:20:23;15.64;95.19
18581;DHT22;9420;50.876;7.012;2023-08-06T10:23:00;15.49;94.46
18581;DHT22;9420;50.876;7.012;2023-08-06T10:25:31;15.12;95.00
18581;DHT22;9420;50.876;7.012;2023-08-06T10:27:59;14.74;95.17
18581;DHT22;9420;50.876;7.012;2023-08-06T10:30:28;14.63;95.81
18581;DHT22;9420;50.876;7.012;2023-08-06T10:32:56;14.59;95.17
18581;DHT22;9420;50.876;7.012;2023-08-06T10:35:29;14.53;97.55
18581;DHT22;9420;50.876;7.012;2023-08-06T10:38:03;14.22;99.54
18581;DHT22;9420;50.876;7.012;2023-08-06T10:40:31;14.09;99.38
18581;DHT22;9420;50.876;7.012;2023-08-06T10:42:59;14.16;99.34
18581;DHT22;9420;50.876;7.012;2023-08-06T10:45:26;14.20;99.32
18581;DHT22;9420;50.876;7.012;2023-08-06T10:47:54;14.13;98.91
18581;DHT22;9420;50.876;7.012;2023-08-06T10:50:22;14.06;98.87
18581;DHT22;9420;50.876;7.012;2023-08-06T10:52:48;14.14;99.09
18581;DHT22;9420;50.876;7.012;2023-08-06T10:55:22;14.19;99.03
18581;DHT22;9420;50.876;7.012;2023-08-06T10:57:51;14.13;97.93
18581;DHT22;9420;50.876;7.012;2023-08-06T11:00:18;14.14;95.19
18581;DHT22;9420;50.876;7.012;2023-08-06T11:02:46;14.16;95.15
18581;DHT22;9420;50.876;7.012;2023-08-06T11:05:13;14.20;96.99
18581;DHT22;9420;50.876;7.012;2023-08-06T11:07:40;14.22;95.41
18581;DHT22;9420;50.876;7.012;2023-08-06T11:10:09;14.40;95.02
18581;DHT22;9420;50.876;7.012;2023-08-06T11:12:36;14.33;94.19
18581;DHT22;9420;50.876;7.012;2023-08-06T11:15:05;14.36;95.21
18581;DHT22;9420;50.876;7.012;2023-08-06T11:17:33;14.32;93.83
18581;DHT22;9420;50.876;7.012;2023-08-06T11:20:00;14.27;94.16
18581;DHT22;9420;50.876;7.012;2023-08-06T11:22:27;14.30;93.99
18581;DHT22;9420;50.876;7.012;2023-08-06T11:24:54;14.29;94.38
18581;DHT22;9420;50.876;7.012;2023-08-06T11:27:21;14.41;95.13
18581;DHT22;9420;50.876;7.012;2023-08-06T11:29:47;14.38;93.95
18581;DHT22;9420;50.876;7.012;2023-08-06T11:32:15;14.41;94.11
18581;DHT22;9420;50.876;7.012;2023-08-06T11:34:43;14.44;94.65
18581;DHT22;9420;50.876;7.012;2023-08-06T11:37:09;14.41;94.27
18581;DHT22;9420;50.876;7.012;2023-08-06T11:39:37;14.48;94.48
18581;DHT22;9420;50.876;7.012;2023-08-06T11:42:05;14.45;93.75
18581;DHT22;9420;50.876;7.012;2023-08-06T11:44:35;14.59;92.87
18581;DHT22;9420;50.876;7.012;2023-08-06T11:47:02;14.67;93.87
18581;DHT22;9420;50.876;7.012;2023-08-06T11:49:39;14.59;92.88
18581;DHT22;9420;50.876;7.012;2023-08-06T11:52:09;14.64;92.37
18581;DHT22;9420;50.876;7.012;2023-08-06T11:54:36;14.82;92.41
18581;DHT22;9420;50.876;7.012;2023-08-06T11:57:05;14.81;93.44
18581;DHT22;9420;50.876;7.012;2023-08-06T11:59:31;14.84;91.05
18581;DHT22;9420;50.876;7.012;2023-08-06T12:02:00;14.92;91.45
18581;DHT22;9420;50.876;7.012;2023-08-06T12:04:26;14.98;90.64
18581;DHT22;9420;50.876;7.012;2023-08-06T12:07:04;15.12;90.28
18581;DHT22;9420;50.876;7.012;2023-08-06T12:09:31;15.18;90.00
18581;DHT22;9420;50.876;7.012;2023-08-06T12:11:58;15.15;90.23
18581;DHT22;9420;50.876;7.012;2023-08-06T12:14:25;15.20;90.38
18581;DHT22;9420;50.876;7.012;2023-08-06T12:16:51;15.36;90.85
18581;DHT22;9420;50.876;7.012;2023-08-06T12:19:18;15.32;89.78
18581;DHT22;9420;50.876;7.012;2023-08-06T12:21:45;15.29;89.55
18581;DHT22;9420;50.876;7.012;2023-08-06T12:24:13;15.30;89.65
18581;DHT22;9420;50.876;7.012;2023-08-06T12:26:40;15.35;90.31
18581;DHT22;9420;50.876;7.012;2023-08-06T12:29:06;15.59;89.90
18581;DHT22;9420;50.876;7.012;2023-08-06T12:31:33;15.59;89.04
18581;DHT22;9420;50.876;7.012;2023-08-06T12:33:59;15.66;87.97
18581;DHT22;9420;50.876;7.012;2023-08-06T12:36:26;15.51;87.95
18581;DHT22;9420;50.876;7.012;2023-08-06T12:38:53;15.60;87.91
18581;DHT22;9420;50.876;7.012;2023-08-06T12:41:20;15.57;87.93
18581;DHT22;9420;50.876;7.012;2023-08-06T12:43:47;15.46;88.20
18581;DHT22;9420;50.876;7.012;2023-08-06T12:46:14;15.40;87.85
18581;DHT22;9420;50.876;7.012;2023-08-06T12:48:40;15.23;89.57
18581;DHT22;9420;50.876;7.012;2023-08-06T12:51:07;15.33;89.60
18581;DHT22;9420;50.876;7.012;2023-08-06T12:53:33;15.15;89.74
18581;DHT22;9420;50.876;7.012;2023-08-06T12:56:00;15.08;91.37
18581;DHT22;9420;50.876;7.012;2023-08-06T12:58:28;14.95;92.05
18581;DHT22;9420;50.876;7.012;2023-08-06T13:00:55;14.91;92.53
18581;DHT22;9420;50.876;7.012;2023-08-06T13:03:22;14.81;94.06
18581;DHT22;9420;50.876;7.012;2023-08-06T13:05:49;14.82;94.11
18581;DHT22;9420;50.876;7.012;2023-08-06T13:08:17;14.72;94.11
18581;DHT22;9420;50.876;7.012;2023-08-06T13:10:43;14.74;94.59
18581;DHT22;9420;50.876;7.012;2023-08-06T13:13:10;14.72;94.32
18581;DHT22;9420;50.876;7.012;2023-08-06T13:15:38;14.78;95.44
18581;DHT22;9420;50.876;7.012;2023-08-06T13:18:05;14.84;94.52
18581;DHT22;9420;50.876;7.012;2023-08-06T13:20:31;14.91;93.32
18581;DHT22;9420;50.876;7.012;2023-08-06T13:22:58;15.05;93.94
18581;DHT22;9420;50.876;7.012;2023-08-06T13:25:26;15.13;93.61
18581;DHT22;9420;50.876;7.012;2023-08-06T13:27:53;15.08;93.71
18581;DHT22;9420;50.876;7.012;2023-08-06T13:30:21;15.12;94.02
18581;DHT22;9420;50.876;7.012;2023-08-06T13:32:49;15.13;94.02
18581;DHT22;9420;50.876;7.012;2023-08-06T13:35:16;15.08;93.45
18581;DHT22;9420;50.876;7.012;2023-08-06T13:37:42;15.06;92.26
18581;DHT22;9420;50.876;7.012;2023-08-06T13:40:10;14.99;92.82
18581;DHT22;9420;50.876;7.012;2023-08-06T13:42:36;14.93;93.99
18581;DHT22;9420;50.876;7.012;2023-08-06T13:45:04;14.87;94.94
18581;DHT22;9420;50.876;7.012;2023-08-06T13:47:31;14.84;94.74
18581;DHT22;9420;50.876;7.012;2023-08-06T13:49:59;14.77;94.55
18581;DHT22;9420;50.876;7.012;2023-08-06T13:52:28;14.91;95.54
18581;DHT22;9420;50.876;7.012;2023-08-06T13:54:55;15.03;94.80
18581;DHT22;9420;50.876;7.012;2023-08-06T13:57:22;15.13;94.76
18581;DHT22;9420;50.876;7.012;2023-08-06T13:59:48;15.22;93.95
18581;DHT22;9420;50.876;7.012;2023-08-06T14:02:15;15.28;94.15
18581;DHT22;9420;50.876;7.012;2023-08-06T14:04:42;15.36;92.33
18581;DHT22;9420;50.876;7.012;2023-08-06T14:07:09;15.35;93.07
18581;DHT22;9420;50.876;7.012;2023-08-06T14:09:36;15.42;92.79
18581;DHT22;9420;50.876;7.012;2023-08-06T14:12:03;15.33;92.90
18581;DHT22;9420;50.876;7.012;2023-08-06T14:14:30;15.32;91.98
18581;DHT22;9420;50.876;7.012;2023-08-06T14:16:57;15.32;92.54
18581;DHT22;9420;50.876;7.012;2023-08-06T14:19:24;15.39;90.96
18581;DHT22;9420;50.876;7.012;2023-08-06T14:21:50;15.42;90.03
18581;DHT22;9420;50.876;7.012;2023-08-06T14:24:19;15.46;91.04
18581;DHT22;9420;50.876;7.012;2023-08-06T14:26:45;15.40;91.33
18581;DHT22;9420;50.876;7.012;2023-08-06T14:29:12;15.61;90.83
18581;DHT22;9420;50.876;7.012;2023-08-06T14:31:40;15.63;90.37
18581;DHT22;9420;50.876;7.012;2023-08-06T14:34:06;15.70;89.01
18581;DHT22;9420;50.876;7.012;2023-08-06T14:36:33;15.71;89.61
18581;DHT22;9420;50.876;7.012;2023-08-06T14:39:00;15.74;90.77
18581;DHT22;9420;50.876;7.012;2023-08-06T14:41:28;15.71;90.48
18581;DHT22;9420;50.876;7.012;2023-08-06T14:43:54;15.77;90.96
18581;DHT22;9420;50.876;7.012;2023-08-06T14:46:21;15.83;88.65
18581;DHT22;9420;50.876;7.012;2023-08-06T14:48:48;15.76;88.78
18581;DHT22;9420;50.876;7.012;2023-08-06T14:51:15;15.76;89.11
18581;DHT22;9420;50.876;7.012;2023-08-06T14:53:44;15.74;89.89
18581;DHT22;9420;50.876;7.012;2023-08-06T14:56:10;15.77;88.42
18581;DHT22;9420;50.876;7.012;2023-08-06T14:58:38;15.90;88.14
18581;DHT22;9420;50.876;7.012;2023-08-06T15:01:05;16.05;89.23
18581;DHT22;9420;50.876;7.012;2023-08-06T15:03:32;15.98;88.45
18581;DHT22;9420;50.876;7.012;2023-08-06T15:05:59;16.07;87.00
18581;DHT22;9420;50.876;7.012;2023-08-06T15:08:25;16.22;86.56
18581;DHT22;9420;50.876;7.012;2023-08-06T15:10:52;16.33;87.63
18581;DHT22;9420;50.876;7.012;2023-08-06T15:13:20;16.36;86.39
18581;DHT22;9420;50.876;7.012;2023-08-06T15:15:49;16.35;86.42
18581;DHT22;9420;50.876;7.012;2023-08-06T15:18:16;16.18;85.51
18581;DHT22;9420;50.876;7.012;2023-08-06T15:20:42;16.15;85.75
18581;DHT22;9420;50.876;7.012;2023-08-06T15:23:09;16.12;86.39
18581;DHT22;9420;50.876;7.012;2023-08-06T15:25:35;16.18;85.54
18581;DHT22;9420;50.876;7.012;2023-08-06T15:28:02;16.17;86.89
18581;DHT22;9420;50.876;7.012;2023-08-06T15:30:29;16.28;86.21
18581;DHT22;9420;50.876;7.012;2023-08-06T15:32:57;16.42;85.11
18581;DHT22;9420;50.876;7.012;2023-08-06T15:35:23;16.28;86.29
18581;DHT22;9420;50.876;7.012;2023-08-06T15:37:50;16.38;86.02
18581;DHT22;9420;50.876;7.012;2023-08-06T15:40:17;16.28;85.54
18581;DHT22;9420;50.876;7.012;2023-08-06T15:42:43;16.29;85.29
18581;DHT22;9420;50.876;7.012;2023-08-06T15:45:10;16.51;86.14